Charles B. Wheeler Downtown Airport Kansas City US
ICAO: KMKC
IATA: MKC
Category: Medium
Scheduled Services: No

Elevation: 759 ft
TransAlt. 18000 ft.

Airport Communications:
APP/DEP:119
ATIS:120.75
CLNC DEL:121.9
GND:121.9
COLUMBIA RDO:122.6
DOWNTOWN TWR:133.3
UNICOM:122.95

KMKC Zoom In..

If you have problems with the map follow the link
https://www.worldairports.se/pages/airport.php?
ICAO=KMKC

Runways:

(A) RW 01 length 6827 ft width 150 ft
---- / hdg 8

(B) RW 03 length 5050 ft width 100 ft
ILS 111.75 / hdg 33

(C) RW 19 length 6827 ft width 150 ft
ILS 109.90 / hdg 188

(D) RW 21 length 5050 ft width 100 ft
---- / hdg 213

Location; KMKC
Day. 23 / Time. 16.54 Zulu
* Altimeter: 30.37
* Temperature: 16° c. 60.8°f.
* Wind from: 040° Speed 08 kn.
Dewpoint: -01° c.
Visibility: 10 Statute Miles.
Clouds: Clear (automated report).

KMKC 231654Z AUTO 04008KT 10SM CLR 16/M01 A3037 RMK AO2 SLP282 T01561006


Wind From 040°
Speed 08 kn.

 
 
jpsmedia.com for Web Design worldairports.se 2018   terms of use